createdAt,value
2022-08-01T00:00:12.517Z,21.56
2022-08-01T00:02:41.895Z,21.61
2022-08-01T00:05:11.805Z,21.53
2022-08-01T00:07:40.770Z,21.57
2022-08-01T00:10:11.535Z,21.54
2022-08-01T00:12:40.617Z,21.59
2022-08-01T00:15:12.653Z,21.55
2022-08-01T00:17:41.475Z,21.45
2022-08-01T00:20:12.937Z,21.46
2022-08-01T00:22:41.575Z,21.37
2022-08-01T00:25:10.614Z,21.06
2022-08-01T00:27:38.866Z,21.26
2022-08-01T00:30:10.756Z,21.20
2022-08-01T00:32:42.528Z,21.19
2022-08-01T00:35:11.224Z,21.14
2022-08-01T00:37:39.496Z,21.09
2022-08-01T00:40:11.187Z,21.17
2022-08-01T00:42:43.434Z,21.15
2022-08-01T00:45:12.674Z,20.87
2022-08-01T00:47:42.322Z,20.99
2022-08-01T00:50:12.142Z,20.99
2022-08-01T00:52:42.162Z,20.86
2022-08-01T00:55:15.053Z,20.72
2022-08-01T00:58:03.302Z,20.62
2022-08-01T01:00:34.846Z,20.52
2022-08-01T01:03:37.915Z,20.48
2022-08-01T01:06:23.655Z,20.43
2022-08-01T01:09:00.651Z,20.47
2022-08-01T01:11:38.187Z,20.44
2022-08-01T01:14:12.243Z,20.45
2022-08-01T01:16:43.456Z,20.44
2022-08-01T01:19:18.806Z,20.43
2022-08-01T01:22:03.412Z,20.53
2022-08-01T01:24:40.234Z,20.51
2022-08-01T01:27:19.921Z,20.38
2022-08-01T01:29:59.773Z,20.40
2022-08-01T01:32:35.201Z,20.07
2022-08-01T01:35:07.714Z,20.40
2022-08-01T01:37:39.919Z,20.40
2022-08-01T01:40:11.897Z,20.30
2022-08-01T01:42:42.266Z,20.19
2022-08-01T01:45:12.822Z,20.19
2022-08-01T01:47:42.310Z,20.22
2022-08-01T01:50:14.165Z,20.24
2022-08-01T01:52:44.574Z,20.24
2022-08-01T01:55:14.063Z,20.15
2022-08-01T01:57:45.847Z,19.82
2022-08-01T02:00:17.783Z,20.14
2022-08-01T02:02:47.927Z,20.17
2022-08-01T02:05:17.418Z,20.12
2022-08-01T02:07:48.481Z,20.05
2022-08-01T02:10:20.295Z,20.09
2022-08-01T02:12:57.667Z,20.05
2022-08-01T02:15:30.370Z,19.92
2022-08-01T02:17:59.158Z,20.02
2022-08-01T02:20:31.291Z,19.97
2022-08-01T02:23:08.677Z,19.94
2022-08-01T02:26:10.872Z,19.80
2022-08-01T02:28:35.106Z,19.89
2022-08-01T02:31:12.643Z,20.02
2022-08-01T02:33:44.188Z,19.97
2022-08-01T02:36:32.258Z,19.87
2022-08-01T02:39:04.771Z,19.83
2022-08-01T02:41:35.841Z,19.73
2022-08-01T02:44:08.701Z,19.67
2022-08-01T02:46:41.805Z,19.80
2022-08-01T02:49:13.294Z,19.90
2022-08-01T02:51:43.398Z,19.85
2022-08-01T02:54:13.601Z,19.79
2022-08-01T02:56:43.913Z,19.75
2022-08-01T02:59:16.399Z,19.70
2022-08-01T03:01:52.534Z,19.65
2022-08-01T03:04:25.681Z,19.73
2022-08-01T03:06:55.713Z,19.81
2022-08-01T03:09:25.190Z,19.87
2022-08-01T03:11:55.158Z,19.84
2022-08-01T03:14:26.138Z,19.73
2022-08-01T03:16:57.472Z,19.83
2022-08-01T03:19:28.694Z,19.84
2022-08-01T03:21:59.530Z,19.77
2022-08-01T03:24:29.532Z,19.24
2022-08-01T03:27:00.316Z,19.89
2022-08-01T03:29:31.043Z,19.92
2022-08-01T03:32:02.356Z,19.82
2022-08-01T03:34:31.075Z,19.81
2022-08-01T03:37:04.906Z,19.72
2022-08-01T03:39:40.381Z,19.72
2022-08-01T03:42:14.771Z,19.81
2022-08-01T03:44:44.160Z,19.77
2022-08-01T03:47:16.363Z,19.75
2022-08-01T03:49:46.638Z,19.72
2022-08-01T03:52:16.537Z,19.65
2022-08-01T03:54:50.048Z,19.47
2022-08-01T03:57:20.202Z,19.67
2022-08-01T04:00:10.057Z,19.72
2022-08-01T04:02:40.967Z,19.66
2022-08-01T04:05:10.162Z,19.75
2022-08-01T04:07:40.367Z,19.65
2022-08-01T04:10:09.278Z,19.76
2022-08-01T04:12:37.581Z,19.70
2022-08-01T04:15:06.903Z,19.47
2022-08-01T04:17:35.105Z,19.73
2022-08-01T04:20:05.344Z,19.77
2022-08-01T04:22:37.162Z,19.76
2022-08-01T04:25:11.702Z,19.73
2022-08-01T04:27:49.829Z,19.80
2022-08-01T04:30:23.488Z,19.83
2022-08-01T04:32:53.467Z,19.73
2022-08-01T04:36:02.428Z,19.41
2022-08-01T04:38:15.387Z,19.80
2022-08-01T04:40:44.901Z,19.80
2022-08-01T04:43:14.981Z,19.76
2022-08-01T04:45:45.875Z,19.47
2022-08-01T04:48:17.740Z,19.54
2022-08-01T04:50:48.143Z,19.52
2022-08-01T04:53:18.746Z,19.58
2022-08-01T04:55:48.220Z,19.69
2022-08-01T04:58:18.504Z,19.60
2022-08-01T05:00:47.510Z,19.94
2022-08-01T05:03:16.150Z,20.05
2022-08-01T05:05:44.447Z,20.17
2022-08-01T05:08:14.383Z,20.08
2022-08-01T05:10:42.605Z,20.46
2022-08-01T05:13:10.933Z,20.63
2022-08-01T05:15:39.285Z,20.91
2022-08-01T05:18:08.617Z,21.16
2022-08-01T05:20:37.035Z,21.09
2022-08-01T05:23:05.281Z,21.66
2022-08-01T05:25:56.395Z,21.71
2022-08-01T05:28:23.481Z,21.04
2022-08-01T05:30:51.901Z,21.60
2022-08-01T05:33:21.942Z,21.40
2022-08-01T05:35:50.177Z,21.46
2022-08-01T05:38:18.588Z,21.43
2022-08-01T05:40:48.202Z,21.33
2022-08-01T05:43:16.698Z,21.13
2022-08-01T05:45:45.709Z,21.01
2022-08-01T05:48:14.087Z,20.44
2022-08-01T05:50:42.279Z,20.67
2022-08-01T05:53:10.455Z,20.68
2022-08-01T05:55:38.627Z,20.56
2022-08-01T05:58:08.218Z,20.54
2022-08-01T06:00:41.425Z,20.51
2022-08-01T06:03:09.582Z,20.57
2022-08-01T06:05:37.787Z,20.57
2022-08-01T06:08:06.339Z,20.66
2022-08-01T06:10:34.555Z,20.31
2022-08-01T06:13:04.281Z,20.55
2022-08-01T06:15:34.798Z,20.61
2022-08-01T06:18:03.356Z,20.47
2022-08-01T06:20:31.536Z,20.59
2022-08-01T06:23:00.974Z,20.58
2022-08-01T06:25:30.955Z,20.55
2022-08-01T06:27:59.497Z,20.67
2022-08-01T06:30:28.212Z,20.84
2022-08-01T06:32:59.822Z,20.18
2022-08-01T06:35:29.626Z,21.02
2022-08-01T06:37:57.824Z,20.78
2022-08-01T06:40:26.612Z,21.12
2022-08-01T06:42:54.801Z,21.24
2022-08-01T06:45:25.990Z,21.22
2022-08-01T06:47:54.186Z,20.78
2022-08-01T06:50:23.720Z,21.26
2022-08-01T06:52:51.968Z,21.39
2022-08-01T06:55:20.954Z,21.46
2022-08-01T06:57:50.623Z,21.52
2022-08-01T07:00:23.593Z,21.69
2022-08-01T07:02:52.531Z,21.66
2022-08-01T07:05:21.403Z,21.55
2022-08-01T07:07:51.033Z,21.61
2022-08-01T07:10:19.665Z,21.60
2022-08-01T07:12:47.879Z,21.51
2022-08-01T07:15:16.805Z,21.41
2022-08-01T07:17:45.186Z,21.54
2022-08-01T07:20:16.240Z,21.63
2022-08-01T07:22:45.422Z,21.77
2022-08-01T07:25:17.811Z,21.86
2022-08-01T07:27:46.021Z,21.60
2022-08-01T07:30:14.851Z,22.04
2022-08-01T07:32:43.090Z,22.26
2022-08-01T07:35:11.910Z,22.67
2022-08-01T07:37:42.178Z,23.01
2022-08-01T07:40:20.175Z,23.33
2022-08-01T07:42:49.173Z,23.51
2022-08-01T07:45:17.691Z,23.78
2022-08-01T07:47:46.493Z,24.16
2022-08-01T07:50:14.879Z,24.42
2022-08-01T07:52:43.203Z,24.43
2022-08-01T07:55:16.503Z,24.42
2022-08-01T07:57:46.693Z,24.94
2022-08-01T08:00:15.558Z,25.02
2022-08-01T08:02:43.799Z,25.16
2022-08-01T08:05:13.751Z,25.15
2022-08-01T08:07:42.040Z,25.10
2022-08-01T08:10:11.051Z,24.99
2022-08-01T08:12:39.246Z,25.18
2022-08-01T08:15:09.986Z,25.20
2022-08-01T08:17:38.185Z,25.41
2022-08-01T08:20:08.934Z,25.38
2022-08-01T08:22:38.092Z,25.36
2022-08-01T08:25:07.882Z,25.45
2022-08-01T08:27:37.464Z,25.37
2022-08-01T08:30:09.686Z,25.43
2022-08-01T08:32:38.310Z,25.41
2022-08-01T08:35:08.310Z,25.21
2022-08-01T08:37:47.886Z,25.36
2022-08-01T08:40:18.163Z,25.38
2022-08-01T08:42:48.071Z,25.55
2022-08-01T08:45:17.837Z,25.69
2022-08-01T08:47:48.261Z,25.76
2022-08-01T08:50:17.074Z,25.89
2022-08-01T08:52:46.884Z,26.16
2022-08-01T08:55:16.712Z,26.26
2022-08-01T08:57:46.279Z,26.47
2022-08-01T09:00:17.461Z,26.63
2022-08-01T09:02:47.778Z,26.65
2022-08-01T09:05:19.460Z,26.65
2022-08-01T09:07:48.048Z,26.90
2022-08-01T09:10:16.328Z,26.98
2022-08-01T09:13:06.344Z,27.38
2022-08-01T09:15:43.480Z,27.47
2022-08-01T09:18:28.045Z,27.39
2022-08-01T09:21:15.480Z,27.40
2022-08-01T09:23:53.995Z,27.38
2022-08-01T09:26:30.114Z,27.45
2022-08-01T09:29:00.666Z,27.38
2022-08-01T09:31:38.118Z,27.24
2022-08-01T09:34:09.650Z,27.40
2022-08-01T09:36:54.218Z,27.60
2022-08-01T09:39:27.260Z,27.74
2022-08-01T09:41:56.615Z,27.73
2022-08-01T09:44:42.185Z,27.75
2022-08-01T09:47:15.525Z,27.82
2022-08-01T09:49:50.473Z,28.09
2022-08-01T09:52:25.697Z,28.30
2022-08-01T09:54:56.924Z,28.60
2022-08-01T09:57:25.772Z,28.85
2022-08-01T09:59:59.705Z,28.40
2022-08-01T10:02:34.291Z,29.26
2022-08-01T10:05:08.393Z,29.39
2022-08-01T10:07:43.532Z,29.36
2022-08-01T10:10:15.379Z,29.20
2022-08-01T10:12:45.679Z,29.38
2022-08-01T10:15:18.027Z,29.26
2022-08-01T10:17:57.299Z,29.36
2022-08-01T10:20:30.248Z,29.18
2022-08-01T10:23:05.900Z,29.02
2022-08-01T10:25:42.737Z,28.77
2022-08-01T10:28:23.639Z,28.69
2022-08-01T10:30:53.328Z,28.60
2022-08-01T10:33:52.751Z,28.54
2022-08-01T10:36:14.988Z,28.73
2022-08-01T10:38:45.536Z,28.90
2022-08-01T10:41:16.453Z,29.15
2022-08-01T10:43:47.034Z,29.35
2022-08-01T10:46:15.816Z,29.63
2022-08-01T10:48:54.501Z,29.78
2022-08-01T10:51:51.178Z,29.77
2022-08-01T10:54:14.588Z,29.98
2022-08-01T10:56:46.489Z,30.03
2022-08-01T10:59:50.385Z,30.15
2022-08-01T11:02:12.475Z,30.20
2022-08-01T11:04:57.206Z,30.22
2022-08-01T11:07:38.173Z,30.38
2022-08-01T11:10:14.576Z,30.25
2022-08-01T11:12:45.480Z,30.32
2022-08-01T11:15:30.859Z,30.18
2022-08-01T11:18:04.807Z,29.92
2022-08-01T11:20:41.909Z,29.85
2022-08-01T11:23:20.388Z,29.47
2022-08-01T11:26:29.242Z,29.74
2022-08-01T11:29:23.462Z,29.83
2022-08-01T11:31:53.198Z,29.91
2022-08-01T11:34:21.928Z,29.90
2022-08-01T11:36:59.872Z,29.92
2022-08-01T11:39:29.528Z,29.93
2022-08-01T11:42:20.802Z,30.03
2022-08-01T11:44:53.085Z,29.85
2022-08-01T11:47:49.878Z,30.25
2022-08-01T11:50:36.075Z,30.32
2022-08-01T11:53:07.196Z,30.20
2022-08-01T11:55:37.021Z,30.32
2022-08-01T11:58:07.671Z,30.64
2022-08-01T12:00:54.325Z,30.66
2022-08-01T12:03:33.558Z,30.78
2022-08-01T12:06:02.511Z,30.90
2022-08-01T12:08:34.036Z,30.87
2022-08-01T12:11:03.491Z,30.83
2022-08-01T12:13:44.405Z,30.77
2022-08-01T12:16:13.544Z,30.83
2022-08-01T12:18:44.705Z,30.51
2022-08-01T12:21:12.915Z,30.71
2022-08-01T12:23:41.161Z,30.92
2022-08-01T12:26:28.531Z,31.19
2022-08-01T12:28:58.366Z,31.43
2022-08-01T12:31:34.055Z,31.68
2022-08-01T12:34:30.689Z,32.03
2022-08-01T12:37:03.611Z,32.43
2022-08-01T12:39:34.501Z,32.68
2022-08-01T12:42:03.216Z,32.71
2022-08-01T12:44:33.053Z,32.49
2022-08-01T12:47:02.213Z,32.32
2022-08-01T12:49:32.404Z,31.93
2022-08-01T12:52:00.950Z,31.68
2022-08-01T12:54:29.632Z,31.49
2022-08-01T12:56:58.489Z,31.33
2022-08-01T12:59:28.907Z,31.31
2022-08-01T13:01:59.549Z,31.60
2022-08-01T13:04:27.930Z,32.17
2022-08-01T13:06:58.150Z,32.19
2022-08-01T13:09:27.559Z,32.34
2022-08-01T13:12:07.073Z,31.99
2022-08-01T13:14:35.451Z,32.66
2022-08-01T13:17:10.035Z,33.04
2022-08-01T13:19:48.352Z,32.85
2022-08-01T13:22:18.027Z,32.55
2022-08-01T13:24:46.395Z,32.30
2022-08-01T13:27:24.423Z,32.09
2022-08-01T13:29:54.189Z,31.88
2022-08-01T13:32:28.303Z,31.71
2022-08-01T13:35:04.161Z,32.21
2022-08-01T13:37:33.775Z,32.41
2022-08-01T13:40:02.048Z,33.53
2022-08-01T13:42:31.445Z,34.06
2022-08-01T13:44:59.755Z,34.01
2022-08-01T13:47:31.019Z,34.10
2022-08-01T13:50:03.420Z,33.93
2022-08-01T13:52:33.531Z,33.55
2022-08-01T13:55:02.469Z,33.34
2022-08-01T13:57:36.278Z,32.69
2022-08-01T14:00:06.840Z,32.64
2022-08-01T14:02:35.385Z,32.26
2022-08-01T14:05:03.949Z,32.08
2022-08-01T14:07:33.605Z,31.88
2022-08-01T14:10:19.302Z,31.71
2022-08-01T14:12:48.467Z,31.94
2022-08-01T14:15:18.632Z,32.86
2022-08-01T14:18:06.331Z,33.84
2022-08-01T14:20:34.905Z,34.15
2022-08-01T14:23:08.539Z,34.78
2022-08-01T14:26:01.696Z,35.49
2022-08-01T14:28:28.521Z,36.12
2022-08-01T14:30:57.626Z,35.49
2022-08-01T14:33:26.114Z,35.12
2022-08-01T14:36:06.526Z,34.21
2022-08-01T14:38:46.286Z,33.96
2022-08-01T14:41:15.391Z,33.57
2022-08-01T14:43:43.742Z,33.24
2022-08-01T14:46:13.683Z,32.86
2022-08-01T14:48:42.794Z,32.54
2022-08-01T14:51:11.112Z,32.50
2022-08-01T14:53:39.901Z,32.33
2022-08-01T14:56:12.631Z,31.97
2022-08-01T14:58:40.824Z,31.37
2022-08-01T15:01:09.131Z,32.05
2022-08-01T15:03:37.807Z,32.05
2022-08-01T15:06:07.517Z,32.55
2022-08-01T15:08:36.035Z,32.95
2022-08-01T15:11:04.275Z,33.11
2022-08-01T15:13:34.149Z,33.02
2022-08-01T15:16:03.083Z,33.02
2022-08-01T15:18:31.290Z,32.95
2022-08-01T15:21:02.522Z,32.89
2022-08-01T15:23:30.728Z,32.67
2022-08-01T15:25:58.886Z,32.84
2022-08-01T15:28:27.178Z,33.97
2022-08-01T15:30:56.707Z,35.19
2022-08-01T15:33:25.615Z,35.69
2022-08-01T15:35:54.023Z,35.15
2022-08-01T15:38:23.003Z,35.36
2022-08-01T15:40:51.300Z,35.83
2022-08-01T15:43:19.625Z,36.40
2022-08-01T15:45:49.130Z,37.02
2022-08-01T15:48:19.340Z,37.07
2022-08-01T15:50:47.586Z,37.45
2022-08-01T15:53:15.832Z,38.60
2022-08-01T15:55:52.130Z,40.34
2022-08-01T15:58:21.291Z,41.04
2022-08-01T16:00:49.641Z,42.37
2022-08-01T16:03:19.327Z,43.74
2022-08-01T16:05:47.535Z,44.45
2022-08-01T16:08:15.858Z,43.73
2022-08-01T16:10:44.524Z,43.06
2022-08-01T16:13:13.077Z,41.97
2022-08-01T16:15:41.959Z,41.18
2022-08-01T16:18:13.170Z,42.03
2022-08-01T16:20:45.782Z,43.47
2022-08-01T16:23:15.606Z,44.35
2022-08-01T16:25:44.729Z,42.45
2022-08-01T16:28:14.471Z,40.47
2022-08-01T16:30:51.048Z,38.41
2022-08-01T16:33:45.587Z,36.60
2022-08-01T16:36:24.784Z,35.70
2022-08-01T16:38:53.156Z,35.49
2022-08-01T16:41:21.804Z,36.58
2022-08-01T16:43:53.848Z,37.07
2022-08-01T16:46:23.927Z,36.22
2022-08-01T16:48:52.346Z,34.96
2022-08-01T16:51:21.074Z,33.53
2022-08-01T16:53:50.893Z,33.12
2022-08-01T16:56:19.315Z,33.68
2022-08-01T16:58:47.515Z,33.21
2022-08-01T17:02:01.428Z,32.80
2022-08-01T17:04:03.519Z,31.86
2022-08-01T17:06:31.749Z,31.33
2022-08-01T17:09:01.162Z,30.88
2022-08-01T17:11:29.200Z,30.41
2022-08-01T17:13:57.404Z,30.03
2022-08-01T17:16:26.713Z,29.18
2022-08-01T17:18:54.909Z,28.87
2022-08-01T17:21:23.149Z,29.00
2022-08-01T17:23:51.412Z,28.72
2022-08-01T17:26:21.210Z,28.53
2022-08-01T17:28:49.474Z,28.44
2022-08-01T17:31:17.963Z,28.29
2022-08-01T17:33:48.687Z,28.18
2022-08-01T17:36:21.365Z,28.01
2022-08-01T17:38:49.653Z,27.93
2022-08-01T17:41:18.326Z,27.93
2022-08-01T17:43:48.284Z,27.78
2022-08-01T17:46:16.810Z,27.40
2022-08-01T17:48:46.847Z,27.55
2022-08-01T17:51:19.345Z,27.54
2022-08-01T17:53:56.743Z,27.54
2022-08-01T17:56:26.774Z,27.47
2022-08-01T17:58:56.733Z,27.46
2022-08-01T18:01:26.529Z,27.27
2022-08-01T18:03:55.029Z,27.20
2022-08-01T18:06:23.810Z,26.89
2022-08-01T18:08:55.426Z,26.57
2022-08-01T18:11:27.348Z,26.48
2022-08-01T18:13:59.682Z,26.67
2022-08-01T18:16:28.361Z,26.62
2022-08-01T18:18:57.871Z,26.47
2022-08-01T18:21:26.296Z,26.41
2022-08-01T18:23:54.455Z,26.12
2022-08-01T18:26:23.186Z,26.23
2022-08-01T18:28:51.626Z,26.01
2022-08-01T18:31:21.417Z,26.13
2022-08-01T18:33:50.090Z,26.04
2022-08-01T18:36:31.766Z,25.95
2022-08-01T18:39:04.562Z,24.85
2022-08-01T18:41:33.295Z,25.69
2022-08-01T18:44:05.424Z,25.70
2022-08-01T18:46:39.270Z,25.52
2022-08-01T18:49:08.936Z,25.22
2022-08-01T18:51:43.530Z,25.37
2022-08-01T18:54:13.397Z,25.11
2022-08-01T18:56:42.400Z,25.21
2022-08-01T18:59:10.792Z,25.18
2022-08-01T19:01:40.849Z,25.18
2022-08-01T19:04:09.577Z,25.18
2022-08-01T19:06:38.096Z,24.94
2022-08-01T19:09:06.707Z,25.01
2022-08-01T19:11:35.984Z,24.96
2022-08-01T19:14:04.451Z,24.90
2022-08-01T19:16:32.791Z,24.89
2022-08-01T19:19:06.934Z,24.81
2022-08-01T19:21:35.421Z,24.67
2022-08-01T19:24:22.710Z,24.54
2022-08-01T19:26:54.277Z,24.63
2022-08-01T19:29:24.366Z,24.72
2022-08-01T19:32:06.974Z,24.58
2022-08-01T19:34:41.579Z,24.43
2022-08-01T19:37:10.411Z,24.52
2022-08-01T19:39:38.751Z,24.40
2022-08-01T19:42:08.537Z,24.32
2022-08-01T19:44:38.568Z,23.53
2022-08-01T19:47:07.321Z,24.19
2022-08-01T19:49:37.367Z,24.12
2022-08-01T19:52:06.471Z,24.07
2022-08-01T19:54:37.487Z,24.07
2022-08-01T19:57:08.593Z,23.90
2022-08-01T19:59:44.431Z,24.09
2022-08-01T20:02:23.621Z,24.07
2022-08-01T20:04:54.502Z,24.09
2022-08-01T20:07:23.554Z,24.06
2022-08-01T20:09:54.412Z,24.08
2022-08-01T20:12:25.068Z,24.04
2022-08-01T20:14:54.999Z,23.90
2022-08-01T20:17:25.398Z,23.99
2022-08-01T20:19:57.090Z,24.03
2022-08-01T20:22:34.298Z,24.02
2022-08-01T20:25:03.703Z,24.07
2022-08-01T20:27:33.540Z,24.01
2022-08-01T20:30:04.771Z,23.98
2022-08-01T20:32:35.876Z,23.79
2022-08-01T20:35:14.953Z,23.55
2022-08-01T20:38:06.597Z,23.59
2022-08-01T20:40:38.195Z,23.45
2022-08-01T20:43:12.367Z,23.57
2022-08-01T20:45:41.439Z,23.48
2022-08-01T20:48:09.828Z,23.39
2022-08-01T20:51:01.060Z,23.55
2022-08-01T20:53:30.286Z,23.49
2022-08-01T20:56:05.242Z,23.52
2022-08-01T20:58:46.452Z,23.49
2022-08-01T21:01:18.959Z,22.38
2022-08-01T21:03:56.746Z,23.34
2022-08-01T21:06:37.065Z,23.27
2022-08-01T21:09:06.944Z,23.26
2022-08-01T21:11:44.319Z,22.88
2022-08-01T21:14:15.672Z,22.60
2022-08-01T21:16:51.411Z,22.50
2022-08-01T21:19:25.731Z,23.02
2022-08-01T21:22:10.104Z,22.90
2022-08-01T21:24:58.733Z,22.32
2022-08-01T21:27:32.721Z,23.00
2022-08-01T21:30:05.367Z,22.90
2022-08-01T21:32:35.167Z,22.94
2022-08-01T21:35:05.003Z,22.92
2022-08-01T21:37:37.722Z,22.85
2022-08-01T21:40:09.935Z,22.79
2022-08-01T21:42:40.827Z,22.73
2022-08-01T21:45:10.910Z,22.72
2022-08-01T21:47:39.261Z,22.67
2022-08-01T21:50:09.594Z,22.22
2022-08-01T21:52:46.735Z,22.62
2022-08-01T21:55:35.599Z,22.05
2022-08-01T21:58:19.307Z,22.37
2022-08-01T22:00:54.316Z,22.41
2022-08-01T22:03:26.643Z,21.70
2022-08-01T22:05:55.915Z,22.43
2022-08-01T22:08:33.435Z,22.37
2022-08-01T22:11:05.902Z,22.43
2022-08-01T22:13:35.430Z,22.25
2022-08-01T22:16:05.402Z,22.21
2022-08-01T22:18:35.296Z,22.24
2022-08-01T22:21:04.922Z,22.27
2022-08-01T22:23:37.029Z,22.20
2022-08-01T22:26:08.634Z,22.15
2022-08-01T22:28:38.309Z,22.15
2022-08-01T22:31:08.050Z,22.18
2022-08-01T22:33:37.650Z,22.03
2022-08-01T22:36:06.570Z,22.15
2022-08-01T22:38:36.628Z,22.12
2022-08-01T22:41:07.431Z,22.06
2022-08-01T22:43:43.026Z,22.07
2022-08-01T22:46:25.197Z,22.12
2022-08-01T22:48:57.845Z,21.53
2022-08-01T22:51:35.461Z,22.15
2022-08-01T22:54:09.928Z,21.92
2022-08-01T22:56:42.935Z,20.93
2022-08-01T22:59:15.925Z,21.58
2022-08-01T23:01:47.873Z,21.75
2022-08-01T23:04:27.654Z,21.69
2022-08-01T23:07:06.270Z,21.70
2022-08-01T23:09:53.398Z,21.63
2022-08-01T23:12:26.277Z,21.70
2022-08-01T23:14:56.521Z,21.81
2022-08-01T23:17:28.851Z,21.75
2022-08-01T23:19:59.626Z,21.97
2022-08-01T23:22:31.623Z,21.99
2022-08-01T23:25:06.198Z,21.90
2022-08-01T23:27:51.319Z,21.90
2022-08-01T23:30:30.837Z,21.98
2022-08-01T23:32:59.943Z,21.97
2022-08-01T23:35:29.458Z,21.86
2022-08-01T23:38:02.755Z,21.85
2022-08-01T23:40:33.607Z,21.90
2022-08-01T23:43:02.767Z,21.87
2022-08-01T23:46:02.355Z,21.75
2022-08-01T23:48:20.197Z,21.79
2022-08-01T23:50:48.517Z,21.91
2022-08-01T23:53:16.788Z,21.94
2022-08-01T23:55:46.731Z,21.98
2022-08-01T23:58:15.055Z,22.07
